Time;durP1;ratioP1;P1;durP2;ratioP2;P2;SDS_P1;SDS_P2;PMS_P1;PMS_P2;Temp;Humidity;BMP_temperature;BMP_pressure;BME280_temperature;BME280_humidity;BME280_pressure;Samples;Min_cycle;Max_cycle;Signal;HPM_P1;HPM_P2
2022/11/03 00:00:08;;;;;;;1999.90;999.90;;;6.50;99.90;;;;;;5032832;28;20479;-69
2022/11/03 00:02:36;;;;;;;1999.90;999.90;;;6.30;99.90;;;;;;5033644;28;20489;-69
2022/11/03 00:06:03;;;;;;;1999.90;999.90;;;6.20;99.90;;;;;;5033850;28;20537;-67
2022/11/03 00:07:50;;;;;;;1999.90;999.90;;;6.20;99.90;;;;;;5029143;28;20538;-68
2022/11/03 00:10:17;;;;;;;1999.90;999.90;;;6.20;99.90;;;;;;5031449;28;20494;-67
2022/11/03 00:12:44;;;;;;;1999.90;999.90;;;6.20;99.90;;;;;;5033498;28;20525;-68
2022/11/03 00:15:11;;;;;;;1999.90;999.90;;;6.30;99.90;;;;;;5029858;28;20817;-68
2022/11/03 00:17:39;;;;;;;1999.90;999.90;;;6.10;99.90;;;;;;5027784;28;20477;-69
2022/11/03 00:20:07;;;;;;;1999.90;999.90;;;6.00;99.90;;;;;;5031412;28;20483;-67
2022/11/03 00:22:34;;;;;;;1999.90;999.90;;;6.00;99.90;;;;;;5032044;28;20463;-68
2022/11/03 00:25:01;;;;;;;1999.90;999.90;;;6.00;99.90;;;;;;5029909;28;20467;-66
2022/11/03 00:27:27;;;;;;;1999.90;999.90;;;5.90;99.90;;;;;;5029920;28;20472;-69
2022/11/03 00:29:54;;;;;;;1999.90;999.90;;;5.90;99.90;;;;;;5032679;28;20999;-68
2022/11/03 00:32:21;;;;;;;1999.90;999.90;;;6.00;99.90;;;;;;5031745;28;20473;-69
2022/11/03 00:34:49;;;;;;;1999.90;999.90;;;6.00;99.90;;;;;;5032365;28;20526;-68
2022/11/03 00:37:16;;;;;;;1999.90;999.90;;;6.00;99.90;;;;;;5032397;28;20470;-69
2022/11/03 00:39:43;;;;;;;1999.90;999.90;;;6.00;99.90;;;;;;5026199;28;20479;-67
2022/11/03 00:42:09;;;;;;;1999.90;999.90;;;6.10;99.90;;;;;;5031344;28;20842;-70
2022/11/03 00:44:36;;;;;;;1999.90;999.90;;;6.10;99.90;;;;;;5032408;28;20463;-69
2022/11/03 00:47:03;;;;;;;1999.90;999.90;;;6.20;99.90;;;;;;5032420;28;20459;-66
2022/11/03 00:49:30;;;;;;;1999.90;999.90;;;6.30;99.90;;;;;;5030470;28;20483;-68
2022/11/03 00:51:58;;;;;;;1999.90;999.90;;;6.40;99.90;;;;;;5030936;28;20463;-68
2022/11/03 00:54:25;;;;;;;1999.90;999.90;;;6.40;99.90;;;;;;5031217;28;20459;-67
2022/11/03 00:56:51;;;;;;;1999.90;999.90;;;6.40;99.90;;;;;;5033184;28;20473;-69
2022/11/03 00:59:18;;;;;;;1999.90;999.90;;;6.50;99.90;;;;;;5032586;28;20463;-68
2022/11/03 01:01:45;;;;;;;1999.90;999.90;;;6.50;99.90;;;;;;5030515;28;20846;-68
2022/11/03 01:07:01;;;;;;;1999.90;999.90;;;6.40;99.90;;;;;;5017804;28;20439;-70
2022/11/03 01:09:30;;;;;;;1999.90;999.90;;;6.50;99.90;;;;;;5034633;28;21006;-70
2022/11/03 01:11:59;;;;;;;1999.90;999.90;;;6.50;99.90;;;;;;5037040;28;20470;-68
2022/11/03 01:14:29;;;;;;;1999.90;999.90;;;6.50;99.90;;;;;;5036723;28;20549;-66
2022/11/03 01:16:55;;;;;;;1999.90;999.90;;;6.50;99.90;;;;;;5035690;28;20463;-67
2022/11/03 01:19:22;;;;;;;1999.90;999.90;;;6.50;99.90;;;;;;5032692;28;20993;-66
2022/11/03 01:21:49;;;;;;;1999.90;999.90;;;6.50;99.90;;;;;;5037226;28;20982;-67
2022/11/03 01:24:18;;;;;;;1999.90;999.90;;;6.50;99.90;;;;;;5034191;28;20546;-66
2022/11/03 01:26:45;;;;;;;1999.90;999.90;;;6.50;99.90;;;;;;5035666;28;20486;-68
2022/11/03 01:29:12;;;;;;;1999.90;999.90;;;6.50;99.90;;;;;;5037519;28;20478;-69
2022/11/03 01:31:39;;;;;;;1999.90;999.90;;;6.40;99.90;;;;;;5036232;28;20545;-68
2022/11/03 01:34:05;;;;;;;1999.90;999.90;;;6.50;99.90;;;;;;5034156;28;20467;-66
2022/11/03 01:36:32;;;;;;;1999.90;999.90;;;6.80;99.90;;;;;;5035953;28;21058;-68
2022/11/03 01:38:59;;;;;;;1999.90;999.90;;;6.80;99.90;;;;;;5035504;28;20482;-67
2022/11/03 01:41:28;;;;;;;1999.90;999.90;;;6.80;99.90;;;;;;5034352;28;21498;-68
2022/11/03 01:44:24;;;;;;;1999.90;999.90;;;6.90;99.90;;;;;;5036438;28;20467;-68
2022/11/03 01:46:54;;;;;;;1999.90;999.90;;;7.00;99.90;;;;;;5031005;28;20465;-67
2022/11/03 01:49:28;;;;;;;1999.90;999.90;;;7.20;99.90;;;;;;5036600;28;20490;-68
2022/11/03 01:52:00;;;;;;;1999.90;999.90;;;7.30;99.90;;;;;;5032381;28;20466;-66
2022/11/03 01:54:29;;;;;;;1999.90;999.90;;;7.50;99.90;;;;;;5033846;28;20467;-67
2022/11/03 01:56:59;;;;;;;1999.90;999.90;;;7.50;99.90;;;;;;5035032;28;20491;-68
2022/11/03 01:59:27;;;;;;;1999.90;999.90;;;7.40;99.90;;;;;;5033469;28;20479;-69
2022/11/03 02:01:54;;;;;;;1999.90;999.90;;;7.40;99.90;;;;;;5034732;28;20459;-69
2022/11/03 02:04:27;;;;;;;1999.90;999.90;;;7.30;99.90;;;;;;5034910;28;20474;-67
2022/11/03 02:07:02;;;;;;;1999.90;999.90;;;7.20;99.90;;;;;;5030677;28;20541;-69
2022/11/03 02:09:29;;;;;;;1999.90;999.90;;;7.60;99.90;;;;;;5032448;28;20501;-71
2022/11/03 02:12:07;;;;;;;1999.90;999.90;;;7.00;99.90;;;;;;5036009;28;20458;-69
2022/11/03 02:14:37;;;;;;;1999.90;999.90;;;6.90;99.90;;;;;;5034675;28;20461;-72
2022/11/03 02:17:09;;;;;;;1999.90;999.90;;;7.00;99.90;;;;;;5035674;28;20463;-69
2022/11/03 02:19:40;;;;;;;1999.90;999.90;;;7.00;99.90;;;;;;5029365;28;20998;-68
2022/11/03 02:22:25;;;;;;;1999.90;999.90;;;7.00;99.90;;;;;;5035895;28;20459;-69
2022/11/03 02:24:54;;;;;;;1999.90;999.90;;;7.20;99.90;;;;;;5031573;28;20459;-68
2022/11/03 02:27:23;;;;;;;1999.90;999.90;;;7.40;99.90;;;;;;5033518;28;20475;-68
2022/11/03 02:29:50;;;;;;;1999.90;999.90;;;8.00;99.90;;;;;;5030482;28;20520;-68
2022/11/03 02:32:22;;;;;;;1999.90;999.90;;;7.90;99.90;;;;;;5035103;28;20470;-66
2022/11/03 02:34:54;;;;;;;1999.90;999.90;;;8.20;99.90;;;;;;5035326;28;20487;-67
2022/11/03 02:37:24;;;;;;;1999.90;999.90;;;8.20;99.90;;;;;;5035024;28;20542;-67
2022/11/03 02:39:56;;;;;;;1999.90;999.90;;;8.20;99.90;;;;;;5031409;28;20486;-68
2022/11/03 02:42:25;;;;;;;1999.90;999.90;;;8.20;99.90;;;;;;5033508;28;20963;-68
2022/11/03 02:44:55;;;;;;;1999.90;999.90;;;8.50;99.90;;;;;;5031780;28;20463;-68
2022/11/03 02:47:23;;;;;;;1999.90;999.90;;;8.60;99.90;;;;;;5039173;28;20465;-69
2022/11/03 02:49:53;;;;;;;1999.90;999.90;;;8.70;99.90;;;;;;5035642;28;20517;-68
2022/11/03 02:52:38;;;;;;;1999.90;999.90;;;8.80;99.90;;;;;;5037475;28;20473;-69
2022/11/03 02:55:16;;;;;;;1999.90;999.90;;;8.90;99.90;;;;;;5036722;28;20493;-69
2022/11/03 02:57:50;;;;;;;1999.90;999.90;;;8.90;99.90;;;;;;5034429;28;21125;-69
2022/11/03 03:00:18;;;;;;;1999.90;999.90;;;9.10;99.90;;;;;;5038162;28;20482;-65
2022/11/03 03:02:55;;;;;;;1999.90;999.90;;;9.20;99.90;;;;;;5035258;28;20467;-66
2022/11/03 03:05:25;;;;;;;1999.90;999.90;;;9.10;99.90;;;;;;5036366;28;20470;-66
2022/11/03 03:07:56;;;;;;;1999.90;999.90;;;9.10;99.90;;;;;;5034001;28;20459;-66
2022/11/03 03:10:27;;;;;;;1999.90;999.90;;;9.00;99.90;;;;;;5037051;28;20524;-66
2022/11/03 03:12:57;;;;;;;1999.90;999.90;;;9.00;99.90;;;;;;5031928;28;20834;-65
2022/11/03 03:15:30;;;;;;;1999.90;999.90;;;9.00;99.90;;;;;;5035158;28;20455;-70
2022/11/03 03:18:04;;;;;;;1999.90;999.90;;;8.90;99.90;;;;;;5032149;28;20473;-67
2022/11/03 03:20:34;;;;;;;1999.90;999.90;;;8.90;99.90;;;;;;5033568;28;20486;-66
2022/11/03 03:23:08;;;;;;;1999.90;999.90;;;8.90;99.90;;;;;;5033777;28;20474;-66
2022/11/03 03:25:40;;;;;;;1999.90;999.90;;;8.90;99.90;;;;;;5037145;28;20861;-66
2022/11/03 03:28:14;;;;;;;1999.90;999.90;;;8.90;99.90;;;;;;5035730;28;20463;-66
2022/11/03 03:30:43;;;;;;;1999.90;999.90;;;8.90;99.90;;;;;;5035108;28;20483;-67
2022/11/03 03:33:12;;;;;;;1999.90;999.90;;;8.90;99.90;;;;;;5035440;28;20975;-66
2022/11/03 03:35:44;;;;;;;1999.90;999.90;;;8.90;99.90;;;;;;5033631;28;20463;-65
2022/11/03 03:38:15;;;;;;;1999.90;999.90;;;9.00;99.90;;;;;;5035376;28;20463;-66
2022/11/03 03:40:45;;;;;;;1999.90;999.90;;;9.00;99.90;;;;;;5033608;28;20506;-67
2022/11/03 03:43:14;;;;;;;1999.90;999.90;;;9.00;99.90;;;;;;5034502;28;20835;-66
2022/11/03 03:45:44;;;;;;;1999.90;999.90;;;9.10;99.90;;;;;;5033645;28;20470;-69
2022/11/03 03:48:12;;;;;;;1999.90;999.90;;;9.10;99.90;;;;;;5046577;28;20443;-72
2022/11/03 03:50:41;;;;;;;1999.90;999.90;;;9.10;99.90;;;;;;5055392;28;20481;-68
2022/11/03 03:53:11;;;;;;;1999.90;999.90;;;9.20;99.90;;;;;;5031699;28;20467;-69
2022/11/03 03:55:40;;;;;;;1999.90;999.90;;;9.20;99.90;;;;;;5032495;28;20459;-68
2022/11/03 03:58:10;;;;;;;1999.90;999.90;;;9.20;99.90;;;;;;5037172;28;20544;-69
2022/11/03 04:00:39;;;;;;;1999.90;999.90;;;9.20;99.90;;;;;;5034176;28;20483;-69
2022/11/03 04:03:08;;;;;;;1999.90;999.90;;;9.30;99.90;;;;;;5034651;28;20459;-69
2022/11/03 04:05:35;;;;;;;1999.90;999.90;;;9.40;99.90;;;;;;5031919;28;20466;-66
2022/11/03 04:08:02;;;;;;;1999.90;999.90;;;9.50;99.90;;;;;;5032284;28;20468;-69
2022/11/03 04:10:28;;;;;;;1999.90;999.90;;;9.60;99.90;;;;;;5035657;28;20481;-68
2022/11/03 04:23:48;;;;;;;1999.90;999.90;;;9.30;99.90;;;;;;5035606;28;20462;-69
2022/11/03 04:26:17;;;;;;;1999.90;999.90;;;9.20;99.90;;;;;;5036258;28;20459;-67
2022/11/03 04:28:44;;;;;;;1999.90;999.90;;;9.20;99.90;;;;;;5033588;28;20492;-68
2022/11/03 04:31:14;;;;;;;1999.90;999.90;;;9.20;99.90;;;;;;5036035;28;20509;-69
2022/11/03 04:33:41;;;;;;;1999.90;999.90;;;9.20;99.90;;;;;;5034490;28;20454;-69
2022/11/03 04:36:13;;;;;;;1999.90;999.90;;;9.10;99.90;;;;;;5036243;28;20473;-72
2022/11/03 04:38:40;;;;;;;1999.90;999.90;;;9.10;99.90;;;;;;5033139;28;20458;-69
2022/11/03 04:41:14;;;;;;;1999.90;999.90;;;9.10;99.90;;;;;;5035898;28;20483;-69
2022/11/03 04:43:42;;;;;;;1999.90;999.90;;;9.10;99.90;;;;;;5035171;28;20454;-69
2022/11/03 04:46:11;;;;;;;1999.90;999.90;;;9.00;99.90;;;;;;5036503;28;20462;-68
2022/11/03 04:48:39;;;;;;;1999.90;999.90;;;9.00;99.90;;;;;;5036927;28;20483;-69
2022/11/03 04:51:14;;;;;;;1999.90;999.90;;;9.00;99.90;;;;;;5035538;28;20505;-69
2022/11/03 04:53:48;;;;;;;1999.90;999.90;;;8.90;99.90;;;;;;5032559;28;20462;-69
2022/11/03 04:56:17;;;;;;;1999.90;999.90;;;8.90;99.90;;;;;;5039471;28;20509;-68
2022/11/03 04:58:46;;;;;;;1999.90;999.90;;;8.90;99.90;;;;;;5035834;28;20840;-68
2022/11/03 05:01:14;;;;;;;1999.90;999.90;;;9.00;99.90;;;;;;5037156;28;20528;-67
2022/11/03 05:03:44;;;;;;;1999.90;999.90;;;9.10;99.90;;;;;;5032505;28;20459;-66
2022/11/03 05:06:14;;;;;;;1999.90;999.90;;;9.10;99.90;;;;;;5035480;28;20926;-66
2022/11/03 05:08:41;;;;;;;1999.90;999.90;;;9.20;99.90;;;;;;5034959;28;20572;-69
2022/11/03 05:11:19;;;;;;;1999.90;999.90;;;9.20;99.90;;;;;;5038599;28;20483;-69
2022/11/03 05:13:46;;;;;;;1999.90;999.90;;;9.20;99.90;;;;;;5032034;28;20964;-69
2022/11/03 05:16:13;;;;;;;1999.90;999.90;;;9.20;99.90;;;;;;5032940;28;20466;-68
2022/11/03 05:18:46;;;;;;;1999.90;999.90;;;9.20;99.90;;;;;;5031201;28;20976;-68
2022/11/03 05:21:18;;;;;;;1999.90;999.90;;;9.20;99.90;;;;;;5037803;28;20487;-69
2022/11/03 05:23:47;;;;;;;1999.90;999.90;;;9.10;99.90;;;;;;5035250;28;20460;-69
2022/11/03 05:26:18;;;;;;;1999.90;999.90;;;9.10;99.90;;;;;;5034709;28;20467;-69
2022/11/03 05:28:48;;;;;;;1999.90;999.90;;;9.10;99.90;;;;;;5032809;28;20995;-66
2022/11/03 05:31:23;;;;;;;1999.90;999.90;;;9.00;99.90;;;;;;5034925;28;20541;-68
2022/11/03 05:33:53;;;;;;;1999.90;999.90;;;8.90;99.90;;;;;;5030412;28;20467;-69
2022/11/03 05:36:22;;;;;;;1999.90;999.90;;;8.90;99.90;;;;;;5037386;28;20467;-66
2022/11/03 05:38:49;;;;;;;1999.90;999.90;;;8.90;99.90;;;;;;5031709;28;20455;-68
2022/11/03 05:41:22;;;;;;;1999.90;999.90;;;8.90;99.90;;;;;;5036250;28;20509;-68
2022/11/03 05:43:59;;;;;;;1999.90;999.90;;;8.90;99.90;;;;;;5034798;28;20467;-68
2022/11/03 05:46:29;;;;;;;1999.90;999.90;;;8.80;99.90;;;;;;5032093;28;20477;-68
2022/11/03 05:49:00;;;;;;;1999.90;999.90;;;8.80;99.90;;;;;;5042362;28;20486;-69
2022/11/03 05:51:33;;;;;;;1999.90;999.90;;;8.70;99.90;;;;;;5044543;23;20475;-68
2022/11/03 05:54:04;;;;;;;1999.90;999.90;;;8.60;99.90;;;;;;5013846;28;20487;-68
2022/11/03 05:56:32;;;;;;;1999.90;999.90;;;8.60;99.90;;;;;;5010066;28;20482;-68
2022/11/03 05:59:00;;;;;;;1999.90;999.90;;;8.60;99.90;;;;;;5018862;28;20456;-69
2022/11/03 06:01:30;;;;;;;1999.90;999.90;;;8.50;99.90;;;;;;5012839;28;20842;-68
2022/11/03 06:04:00;;;;;;;1999.90;999.90;;;8.50;99.90;;;;;;5013879;28;20460;-68
2022/11/03 06:06:32;;;;;;;1999.90;999.90;;;8.50;99.90;;;;;;4994597;28;20441;-68
2022/11/03 06:09:01;;;;;;;1999.90;999.90;;;8.40;99.90;;;;;;5011288;28;20483;-68
2022/11/03 06:11:32;;;;;;;1999.90;999.90;;;8.40;99.90;;;;;;5007204;28;20475;-68
2022/11/03 06:13:59;;;;;;;1999.90;999.90;;;8.40;99.90;;;;;;5018113;28;20460;-68
2022/11/03 06:16:38;;;;;;;1999.90;999.90;;;8.40;99.90;;;;;;5020969;28;20463;-68
2022/11/03 06:19:28;;;;;;;1999.90;999.90;;;8.40;99.90;;;;;;5008710;28;20459;-68
2022/11/03 06:21:58;;;;;;;1999.90;999.90;;;8.40;99.90;;;;;;5014084;28;20512;-68
2022/11/03 06:24:30;;;;;;;1999.90;999.90;;;8.30;99.90;;;;;;5011548;28;20471;-68
2022/11/03 06:26:58;;;;;;;1999.90;999.90;;;8.30;99.90;;;;;;5015402;28;20468;-68
2022/11/03 06:29:25;;;;;;;1999.90;999.90;;;8.50;99.90;;;;;;5012383;28;20476;-67
2022/11/03 06:31:56;;;;;;;1999.90;999.90;;;8.30;99.90;;;;;;5011694;28;20507;-68
2022/11/03 06:34:37;;;;;;;1999.90;999.90;;;8.30;99.90;;;;;;5019509;28;20469;-68
2022/11/03 06:37:20;;;;;;;1999.90;999.90;;;8.40;99.90;;;;;;5012484;28;20467;-68
2022/11/03 06:39:47;;;;;;;1999.90;999.90;;;8.50;99.90;;;;;;5015000;28;20475;-69
2022/11/03 06:42:15;;;;;;;1999.90;999.90;;;8.60;99.90;;;;;;5015747;28;20536;-68
2022/11/03 06:44:45;;;;;;;1999.90;999.90;;;8.70;99.90;;;;;;5011442;28;20472;-69
2022/11/03 06:47:21;;;;;;;1999.90;999.90;;;8.70;99.90;;;;;;5016509;28;20487;-69
2022/11/03 06:49:51;;;;;;;1999.90;999.90;;;8.70;99.90;;;;;;5012293;28;20468;-69
2022/11/03 06:52:26;;;;;;;1999.90;999.90;;;8.80;99.90;;;;;;5014075;28;20498;-68
2022/11/03 06:54:59;;;;;;;1999.90;999.90;;;8.80;99.90;;;;;;5015220;28;20444;-69
2022/11/03 06:57:26;;;;;;;1999.90;999.90;;;9.00;99.90;;;;;;5006475;28;20468;-68
2022/11/03 06:59:55;;;;;;;1999.90;999.90;;;9.00;99.90;;;;;;5011711;28;20456;-69
2022/11/03 07:02:41;;;;;;;1999.90;999.90;;;9.10;99.90;;;;;;5015108;28;21028;-69
2022/11/03 07:05:21;;;;;;;1999.90;999.90;;;9.10;99.90;;;;;;5013101;28;20463;-69
2022/11/03 07:07:47;;;;;;;1999.90;999.90;;;9.20;99.90;;;;;;5011956;28;20460;-69
2022/11/03 07:10:15;;;;;;;1999.90;999.90;;;9.30;99.90;;;;;;5010004;28;20936;-69
2022/11/03 07:12:42;;;;;;;1999.90;999.90;;;9.40;99.90;;;;;;5011505;28;20476;-68
2022/11/03 07:15:22;;;;;;;1999.90;999.90;;;9.40;99.90;;;;;;5010825;28;20999;-69
2022/11/03 07:17:49;;;;;;;1999.90;999.90;;;9.50;99.90;;;;;;5018851;28;20458;-69
2022/11/03 07:20:18;;;;;;;1999.90;999.90;;;9.40;99.90;;;;;;5015047;28;20463;-69
2022/11/03 07:22:46;;;;;;;1999.90;999.90;;;9.40;99.90;;;;;;5006121;28;20488;-68
2022/11/03 07:25:17;;;;;;;1999.90;999.90;;;9.50;99.90;;;;;;5008473;28;20492;-68
2022/11/03 07:27:44;;;;;;;1999.90;999.90;;;9.50;99.90;;;;;;5011933;28;20971;-69
2022/11/03 07:30:19;;;;;;;1999.90;999.90;;;9.60;99.90;;;;;;5019051;28;20479;-69
2022/11/03 07:32:47;;;;;;;1999.90;999.90;;;9.70;99.90;;;;;;5006735;28;20487;-69
2022/11/03 07:35:30;;;;;;;1999.90;999.90;;;9.70;99.90;;;;;;5010681;28;20464;-69
2022/11/03 07:38:01;;;;;;;1999.90;999.90;;;9.80;99.90;;;;;;5015213;28;20876;-69
2022/11/03 07:40:29;;;;;;;1999.90;999.90;;;9.70;99.90;;;;;;5012185;28;20451;-68
2022/11/03 07:42:58;;;;;;;1999.90;999.90;;;9.80;99.90;;;;;;5014077;28;20486;-68
2022/11/03 07:45:36;;;;;;;1999.90;999.90;;;9.80;99.90;;;;;;5008965;28;20460;-69
2022/11/03 07:48:14;;;;;;;1999.90;999.90;;;9.80;99.90;;;;;;5010947;28;20444;-69
2022/11/03 07:50:43;;;;;;;1999.90;999.90;;;9.90;99.90;;;;;;5011251;28;20585;-69
2022/11/03 07:53:14;;;;;;;1999.90;999.90;;;10.00;99.90;;;;;;5011501;28;20483;-69
2022/11/03 07:55:40;;;;;;;1999.90;999.90;;;10.00;99.90;;;;;;5016204;28;20455;-68
2022/11/03 07:58:23;;;;;;;1999.90;999.90;;;10.00;99.90;;;;;;5007921;28;20845;-69
2022/11/03 08:00:53;;;;;;;1999.90;999.90;;;10.10;99.90;;;;;;5012381;28;20460;-69
2022/11/03 08:03:27;;;;;;;1999.90;999.90;;;10.10;99.90;;;;;;5015359;28;20486;-69
2022/11/03 08:05:55;;;;;;;1999.90;999.90;;;10.10;99.90;;;;;;5012181;28;20608;-69
2022/11/03 08:08:22;;;;;;;1999.90;999.90;;;10.10;99.90;;;;;;5021039;28;20832;-69
2022/11/03 08:10:49;;;;;;;1999.90;999.90;;;10.20;99.90;;;;;;5010126;28;20530;-69
2022/11/03 08:13:16;;;;;;;1999.90;999.90;;;10.10;99.90;;;;;;5010992;28;20466;-69
2022/11/03 08:15:43;;;;;;;1999.90;999.90;;;10.20;99.90;;;;;;5010756;28;20456;-69
2022/11/03 08:18:10;;;;;;;1999.90;999.90;;;10.30;99.90;;;;;;5010570;28;20445;-69
2022/11/03 08:20:37;;;;;;;1999.90;999.90;;;10.30;99.90;;;;;;5009739;28;20460;-69
2022/11/03 08:23:05;;;;;;;1999.90;999.90;;;10.30;99.90;;;;;;5009891;28;20840;-69
2022/11/03 08:25:31;;;;;;;1999.90;999.90;;;10.30;99.90;;;;;;5010518;28;20808;-69
2022/11/03 08:28:00;;;;;;;1999.90;999.90;;;10.40;99.90;;;;;;5009338;28;21145;-69
2022/11/03 08:30:27;;;;;;;1999.90;999.90;;;10.40;99.90;;;;;;5010867;28;20566;-69
2022/11/03 08:32:54;;;;;;;1999.90;999.90;;;10.50;99.90;;;;;;5013151;28;20494;-69
2022/11/03 08:35:21;;;;;;;1999.90;999.90;;;10.50;99.90;;;;;;5009206;28;20995;-69
2022/11/03 08:37:47;;;;;;;1999.90;999.90;;;10.60;99.90;;;;;;5017838;28;20975;-68
2022/11/03 08:40:16;;;;;;;1999.90;999.90;;;10.60;99.90;;;;;;5014814;28;20978;-69
2022/11/03 08:42:42;;;;;;;1999.90;999.90;;;10.70;99.90;;;;;;5016885;28;20460;-69
2022/11/03 08:45:10;;;;;;;1999.90;999.90;;;10.70;99.90;;;;;;5011673;28;20444;-69
2022/11/03 08:47:36;;;;;;;1999.90;999.90;;;10.70;99.90;;;;;;5012264;28;20444;-69
2022/11/03 08:50:04;;;;;;;1999.90;999.90;;;10.80;99.90;;;;;;5012067;28;20483;-69
2022/11/03 08:52:31;;;;;;;1999.90;999.90;;;10.90;99.90;;;;;;5010997;28;20491;-70
2022/11/03 08:54:58;;;;;;;1999.90;999.90;;;10.90;99.90;;;;;;5011645;28;20940;-69
2022/11/03 08:57:26;;;;;;;1999.90;999.90;;;11.00;99.90;;;;;;5011994;28;20452;-69
2022/11/03 08:59:53;;;;;;;1999.90;999.90;;;11.00;99.90;;;;;;5011708;28;20818;-69
2022/11/03 09:02:20;;;;;;;1999.90;999.90;;;11.10;99.90;;;;;;5010511;28;20575;-69
2022/11/03 09:04:47;;;;;;;1999.90;999.90;;;11.10;99.90;;;;;;5011877;28;20440;-69
2022/11/03 09:07:14;;;;;;;1999.90;999.90;;;11.10;99.90;;;;;;5012106;28;20452;-69
2022/11/03 09:09:40;;;;;;;1999.90;999.90;;;11.20;99.90;;;;;;5011600;28;20448;-68
2022/11/03 09:12:07;;;;;;;1999.90;999.90;;;11.10;99.90;;;;;;5010389;28;20496;-69
2022/11/03 09:14:35;;;;;;;1999.90;999.90;;;11.10;99.90;;;;;;5011634;28;20899;-69
2022/11/03 09:17:02;;;;;;;1999.90;999.90;;;11.10;99.90;;;;;;5011649;28;20956;-68
2022/11/03 09:19:29;;;;;;;1999.90;999.90;;;11.20;99.90;;;;;;5011827;28;20948;-69
2022/11/03 09:21:55;;;;;;;1999.90;999.90;;;11.20;99.90;;;;;;5013976;28;20478;-68
2022/11/03 09:24:23;;;;;;;1999.90;999.90;;;11.30;99.90;;;;;;5009426;28;20964;-69
2022/11/03 09:26:50;;;;;;;1999.90;999.90;;;11.30;99.90;;;;;;5012024;28;20546;-69
2022/11/03 09:29:17;;;;;;;1999.90;999.90;;;11.30;99.90;;;;;;5014151;28;20464;-69
2022/11/03 09:31:45;;;;;;;1999.90;999.90;;;11.30;99.90;;;;;;5019748;28;20878;-69
2022/11/03 09:34:12;;;;;;;1999.90;999.90;;;11.30;99.90;;;;;;5009752;28;20448;-69
2022/11/03 09:36:39;;;;;;;1999.90;999.90;;;11.40;99.90;;;;;;5012640;28;20488;-69
2022/11/03 09:39:06;;;;;;;1999.90;999.90;;;11.40;99.90;;;;;;5014296;28;20463;-69
2022/11/03 09:41:33;;;;;;;1999.90;999.90;;;11.40;99.90;;;;;;5013650;28;20961;-69
2022/11/03 09:44:00;;;;;;;1999.90;999.90;;;11.40;99.90;;;;;;5012544;28;20591;-69
2022/11/03 09:46:29;;;;;;;1999.90;999.90;;;11.40;99.90;;;;;;5010914;28;20983;-69
2022/11/03 09:48:59;;;;;;;1999.90;999.90;;;11.40;99.90;;;;;;5006681;28;20463;-69
2022/11/03 09:51:27;;;;;;;1999.90;999.90;;;11.50;99.90;;;;;;5010954;28;20491;-69
2022/11/03 09:53:56;;;;;;;1999.90;999.90;;;11.60;99.90;;;;;;5013171;28;20464;-69
2022/11/03 09:56:25;;;;;;;1999.90;999.90;;;11.60;99.90;;;;;;5016208;28;20843;-68
2022/11/03 09:58:52;;;;;;;1999.90;999.90;;;11.60;99.90;;;;;;5021471;28;20877;-68
2022/11/03 10:01:19;;;;;;;1999.90;999.90;;;11.60;99.90;;;;;;5012720;28;20472;-68
2022/11/03 10:03:45;;;;;;;1999.90;999.90;;;11.50;99.90;;;;;;5015667;28;20479;-69
2022/11/03 10:06:15;;;;;;;1999.90;999.90;;;11.60;99.90;;;;;;5012833;28;20467;-68
2022/11/03 10:08:44;;;;;;;1999.90;999.90;;;11.70;99.90;;;;;;5009713;28;20464;-68
2022/11/03 10:11:12;;;;;;;1999.90;999.90;;;11.80;99.90;;;;;;5012186;28;20487;-68
2022/11/03 10:13:42;;;;;;;1999.90;999.90;;;11.90;99.90;;;;;;5012767;28;20948;-68
2022/11/03 10:16:11;;;;;;;1999.90;999.90;;;12.10;99.90;;;;;;5012990;28;20817;-68
2022/11/03 10:18:38;;;;;;;1999.90;999.90;;;12.10;99.90;;;;;;5014122;28;20445;-69
2022/11/03 10:21:09;;;;;;;1999.90;999.90;;;12.00;99.90;;;;;;5013783;28;20464;-69
2022/11/03 10:23:37;;;;;;;1999.90;999.90;;;12.10;99.90;;;;;;5018165;28;20473;-69
2022/11/03 10:26:09;;;;;;;1999.90;999.90;;;12.00;99.90;;;;;;5012024;28;20460;-69
2022/11/03 10:28:37;;;;;;;1999.90;999.90;;;12.10;99.90;;;;;;5013964;28;20535;-69
2022/11/03 10:31:07;;;;;;;1999.90;999.90;;;12.10;99.90;;;;;;5014850;28;20484;-68
2022/11/03 10:33:35;;;;;;;1999.90;999.90;;;12.10;99.90;;;;;;5013998;28;20468;-69
2022/11/03 10:36:04;;;;;;;1999.90;999.90;;;12.20;99.90;;;;;;5015761;28;20470;-69
2022/11/03 10:38:32;;;;;;;1999.90;999.90;;;12.20;99.90;;;;;;5011799;28;20475;-68
2022/11/03 10:41:14;;;;;;;1999.90;999.90;;;12.30;99.90;;;;;;5030320;28;20435;-69
2022/11/03 10:43:43;;;;;;;1999.90;999.90;;;12.50;99.90;;;;;;5033564;28;20454;-69
2022/11/03 10:46:12;;;;;;;1999.90;999.90;;;12.60;99.90;;;;;;5033404;28;20455;-69
2022/11/03 10:48:39;;;;;;;1999.90;999.90;;;12.70;99.90;;;;;;5018124;28;20472;-68
2022/11/03 10:51:08;;;;;;;1999.90;999.90;;;12.80;99.90;;;;;;5011664;28;20492;-67
2022/11/03 10:53:36;;;;;;;1999.90;999.90;;;12.90;99.90;;;;;;5015001;28;20448;-68
2022/11/03 10:56:03;;;;;;;1999.90;999.90;;;13.00;99.90;;;;;;5013183;28;20452;-68
2022/11/03 10:58:33;;;;;;;1999.90;999.90;;;13.10;99.90;;;;;;5018947;28;20464;-68
2022/11/03 11:01:00;;;;;;;1999.90;999.90;;;13.30;99.90;;;;;;5006738;28;20467;-68
2022/11/03 11:03:27;;;;;;;1999.90;999.90;;;13.40;99.90;;;;;;5010515;28;20483;-70
2022/11/03 11:05:54;;;;;;;1999.90;999.90;;;13.50;99.90;;;;;;5013653;28;20989;-68
2022/11/03 11:08:23;;;;;;;1999.90;999.90;;;13.50;99.90;;;;;;5023783;28;20832;-69
2022/11/03 11:10:50;;;;;;;1999.90;999.90;;;13.60;99.90;;;;;;5032832;28;20509;-67
2022/11/03 11:13:28;;;;;;;1999.90;999.90;;;13.60;99.90;;;;;;5014820;28;20561;-68
2022/11/03 11:15:57;;;;;;;1999.90;999.90;;;13.60;99.90;;;;;;5013035;28;20510;-69
2022/11/03 11:19:10;;;;;;;1999.90;999.90;;;13.70;99.90;;;;;;5013068;28;20508;-70
2022/11/03 11:22:14;;;;;;;1999.90;999.90;;;13.70;99.90;;;;;;5018391;28;20471;-68
2022/11/03 11:24:58;;;;;;;1999.90;999.90;;;13.80;99.90;;;;;;5006065;28;20460;-70
2022/11/03 11:27:58;;;;;;;1999.90;999.90;;;13.80;99.90;;;;;;5004250;28;21002;-68
2022/11/03 11:31:00;;;;;;;1999.90;999.90;;;13.60;99.90;;;;;;5012503;28;20820;-68
2022/11/03 11:33:31;;;;;;;1999.90;999.90;;;13.70;99.90;;;;;;4980069;28;20471;-68
2022/11/03 11:36:22;;;;;;;1999.90;999.90;;;13.70;99.90;;;;;;5012028;28;20448;-68
2022/11/03 11:39:09;;;;;;;1999.90;999.90;;;13.70;99.90;;;;;;4993305;28;20453;-69
2022/11/03 11:42:07;;;;;;;1999.90;999.90;;;13.70;99.90;;;;;;4993280;28;20475;-68
2022/11/03 11:44:56;;;;;;;1999.90;999.90;;;13.70;99.90;;;;;;4992585;28;21019;-68
2022/11/03 11:47:30;;;;;;;1999.90;999.90;;;13.60;99.90;;;;;;5009213;28;20994;-69
2022/11/03 11:50:30;;;;;;;1999.90;999.90;;;13.60;99.90;;;;;;5014512;28;20467;-69
2022/11/03 11:53:01;;;;;;;1999.90;999.90;;;13.60;99.90;;;;;;5017671;28;20542;-68
2022/11/03 11:55:37;;;;;;;1999.90;999.90;;;13.60;99.90;;;;;;5011293;28;20927;-67
2022/11/03 11:58:12;;;;;;;1999.90;999.90;;;13.60;99.90;;;;;;5009748;28;20436;-67
2022/11/03 12:00:54;;;;;;;1999.90;999.90;;;13.60;99.90;;;;;;5012659;28;20503;-67
2022/11/03 12:03:45;;;;;;;1999.90;999.90;;;13.50;99.90;;;;;;5012518;28;20471;-68
2022/11/03 12:06:13;;;;;;;1999.90;999.90;;;13.60;99.90;;;;;;5006359;28;20451;-67
2022/11/03 12:08:42;;;;;;;1999.90;999.90;;;13.50;99.90;;;;;;5004836;28;20460;-67
2022/11/03 12:11:12;;;;;;;1999.90;999.90;;;13.50;99.90;;;;;;5019903;28;22321;-67
2022/11/03 12:13:46;;;;;;;1999.90;999.90;;;13.60;99.90;;;;;;5015062;28;20464;-67
2022/11/03 12:16:31;;;;;;;1999.90;999.90;;;13.40;99.90;;;;;;5011536;28;20975;-67
2022/11/03 12:19:18;;;;;;;1999.90;999.90;;;13.50;99.90;;;;;;5018236;28;20459;-67
2022/11/03 12:21:46;;;;;;;1999.90;999.90;;;13.50;99.90;;;;;;5007300;28;20495;-67
2022/11/03 12:24:38;;;;;;;1999.90;999.90;;;13.60;99.90;;;;;;5011322;28;20467;-68
2022/11/03 12:27:35;;;;;;;1999.90;999.90;;;13.70;99.90;;;;;;5011609;28;20478;-68
2022/11/03 12:30:04;;;;;;;1999.90;999.90;;;13.70;99.90;;;;;;5011112;28;20827;-67
2022/11/03 12:32:31;;;;;;;1999.90;999.90;;;13.80;99.90;;;;;;5010303;28;20488;-67
2022/11/03 12:34:58;;;;;;;1999.90;999.90;;;13.80;99.90;;;;;;5011053;28;20484;-68